Voyager Of The Seas — C6SE5 — position and weather

sailwx.info

Track history (hours):
 
Tides and Currents Weather Stations Pressure Air Temp Water Temp Dewpoint Dewpoint Depression Visibility Wind Speed Wind Dir Waves Ship Positions

Voyager Of The Seas

Operator: Royal Caribbean Cruises Ltd

Last reported at 2014-Dec-13 06:33 UTC. Time now 2014-Dec-18 14:29 UTC.
Position S 36°27' E 175°03'.

Type: Passenger vessel. MMSI: 311317000.

Date/timePositionNaut miles runAvg speedWind from/ knotsBaromVisibWave heightAir tempDewpointWater temp
2014-Dec-13 06:33S 36°27' E 175°03'1414.1
2014-Dec-13 05:33S 36°40' E 174°55'1111.4
2014-Dec-13 04:34S 36°50' E 174°49'3 2.4
2014-Dec-13 03:31S 36°50' E 174°46'0 0.0
2014-Dec-13 02:31S 36°50' E 174°46'0 0.0
2014-Dec-13 01:31S 36°50' E 174°46'0 0.0
2014-Dec-13 00:31S 36°50' E 174°46'0 0.0
2014-Dec-12 23:31S 36°50' E 174°46'0 0.0
2014-Dec-12 22:31S 36°50' E 174°46'0 0.0
2014-Dec-12 21:31S 36°50' E 174°46'0 0.0
2014-Dec-12 20:31S 36°50' E 174°46'0 0.0
2014-Dec-12 19:32S 36°50' E 174°46'6 5.9
2014-Dec-12 18:34S 36°45' E 174°49'1312.7
2014-Dec-12 17:33S 36°34' E 174°58'1212.6
2014-Dec-12 16:33S 36°22' E 175°00'  
2014-Dec-07 15:21S 33°29' E 151°48'911.1
2014-Dec-07 14:33S 33°23' E 151°55'1111.2
2014-Dec-07 13:34S 33°15' E 152°05'1111.3
2014-Dec-07 12:33S 33°07' E 152°14'1313.1
2014-Dec-07 11:33S 32°57' E 152°25'1413.6
2014-Dec-07 10:33S 32°47' E 152°36'1414.1
2014-Dec-07 09:33S 32°37' E 152°48'27416.8
2014-Dec-06 17:14S 28°08' E 153°52'1420.6
2014-Dec-06 16:33S 27°54' E 153°50'2220.7
2014-Dec-06 15:28S 27°32' E 153°48'2021.5
2014-Dec-06 14:33S 27°14' E 153°40'2120.4
2014-Dec-06 13:31S 26°54' E 153°31'1919.3
2014-Dec-06 12:33S 26°44' E 153°14'9 9.1
2014-Dec-06 11:32S 26°52' E 153°10'1615.8
2014-Dec-06 10:33S 27°06' E 153°19'1413.9
2014-Dec-06 09:33S 27°18' E 153°13'5 2.3
2014-Dec-06 07:12S 27°23' E 153°10'0 0.0
2014-Dec-06 06:33S 27°23' E 153°10'0 0.0
2014-Dec-06 02:32S 27°23' E 153°10'0 0.0
2014-Dec-05 21:34S 27°23' E 153°10'9 9.1
2014-Dec-05 20:33S 27°16' E 153°16'1513.5
2014-Dec-05 19:26S 27°01' E 153°15'1314.4
2014-Dec-05 18:33S 26°49' E 153°10'1211.3
2014-Dec-05 17:27S 26°38' E 153°18'  
Track history (hours):
 
Tides and Currents Weather Stations Pressure Air Temp Water Temp Dewpoint Dewpoint Depression Visibility Wind Speed Wind Dir Waves Ship Positions

Voyager Of The Seas

Operator: Royal Caribbean Cruises Ltd

Last reported at 2014-Dec-13 06:33 UTC. Time now 2014-Dec-18 14:29 UTC.
Position S 36°27' E 175°03'.

Type: Passenger vessel. MMSI: 311317000.

Date/timePositionNaut miles runAvg speedWind from/ knotsBaromVisibWave heightAir tempDewpointWater temp
2014-Dec-13 06:33S 36°27' E 175°03'1414.1
2014-Dec-13 05:33S 36°40' E 174°55'1111.4
2014-Dec-13 04:34S 36°50' E 174°49'3 2.4
2014-Dec-13 03:31S 36°50' E 174°46'0 0.0
2014-Dec-13 02:31S 36°50' E 174°46'0 0.0
2014-Dec-13 01:31S 36°50' E 174°46'0 0.0
2014-Dec-13 00:31S 36°50' E 174°46'0 0.0
2014-Dec-12 23:31S 36°50' E 174°46'0 0.0
2014-Dec-12 22:31S 36°50' E 174°46'0 0.0
2014-Dec-12 21:31S 36°50' E 174°46'0 0.0
2014-Dec-12 20:31S 36°50' E 174°46'0 0.0
2014-Dec-12 19:32S 36°50' E 174°46'6 5.9
2014-Dec-12 18:34S 36°45' E 174°49'1312.7
2014-Dec-12 17:33S 36°34' E 174°58'1212.6
2014-Dec-12 16:33S 36°22' E 175°00'  
2014-Dec-07 15:21S 33°29' E 151°48'911.1
2014-Dec-07 14:33S 33°23' E 151°55'1111.2
2014-Dec-07 13:34S 33°15' E 152°05'1111.3
2014-Dec-07 12:33S 33°07' E 152°14'1313.1
2014-Dec-07 11:33S 32°57' E 152°25'1413.6
2014-Dec-07 10:33S 32°47' E 152°36'1414.1
2014-Dec-07 09:33S 32°37' E 152°48'27416.8
2014-Dec-06 17:14S 28°08' E 153°52'1420.6
2014-Dec-06 16:33S 27°54' E 153°50'2220.7
2014-Dec-06 15:28S 27°32' E 153°48'2021.5
2014-Dec-06 14:33S 27°14' E 153°40'2120.4
2014-Dec-06 13:31S 26°54' E 153°31'1919.3
2014-Dec-06 12:33S 26°44' E 153°14'9 9.1
2014-Dec-06 11:32S 26°52' E 153°10'1615.8
2014-Dec-06 10:33S 27°06' E 153°19'1413.9
2014-Dec-06 09:33S 27°18' E 153°13'5 2.3
2014-Dec-06 07:12S 27°23' E 153°10'0 0.0
2014-Dec-06 06:33S 27°23' E 153°10'0 0.0
2014-Dec-06 02:32S 27°23' E 153°10'0 0.0
2014-Dec-05 21:34S 27°23' E 153°10'9 9.1
2014-Dec-05 20:33S 27°16' E 153°16'1513.5
2014-Dec-05 19:26S 27°01' E 153°15'1314.4
2014-Dec-05 18:33S 26°49' E 153°10'1211.3
2014-Dec-05 17:27S 26°38' E 153°18'  

Dump ship's entire track history